sensor_id;sensor_type;location;lat;lon;timestamp;pressure;altitude;pressure_sealevel;temperature;humidity
50384;BME280;36301;48.310;12.786;2023-12-07T00:00:35;96415.31;;;2.92;100.00
50384;BME280;36301;48.310;12.786;2023-12-07T00:03:02;96406.03;;;2.68;100.00
50384;BME280;36301;48.310;12.786;2023-12-07T00:05:29;96408.19;;;2.66;100.00
50384;BME280;36301;48.310;12.786;2023-12-07T00:07:55;96407.44;;;2.74;100.00
50384;BME280;36301;48.310;12.786;2023-12-07T00:10:22;96421.78;;;2.85;100.00
50384;BME280;36301;48.310;12.786;2023-12-07T00:12:49;96411.34;;;2.94;100.00
50384;BME280;36301;48.310;12.786;2023-12-07T00:15:15;96422.41;;;2.91;100.00
50384;BME280;36301;48.310;12.786;2023-12-07T00:17:42;96419.00;;;2.82;100.00
50384;BME280;36301;48.310;12.786;2023-12-07T00:20:09;96420.69;;;2.86;100.00
50384;BME280;36301;48.310;12.786;2023-12-07T00:22:36;96419.97;;;2.95;100.00
50384;BME280;36301;48.310;12.786;2023-12-07T00:25:03;96410.72;;;2.97;100.00
50384;BME280;36301;48.310;12.786;2023-12-07T00:27:29;96415.28;;;2.83;100.00
50384;BME280;36301;48.310;12.786;2023-12-07T00:29:56;96418.53;;;2.89;100.00
50384;BME280;36301;48.310;12.786;2023-12-07T00:32:22;96419.13;;;2.77;100.00
50384;BME280;36301;48.310;12.786;2023-12-07T00:34:49;96416.97;;;2.70;100.00
50384;BME280;36301;48.310;12.786;2023-12-07T00:37:16;96416.06;;;2.83;100.00
50384;BME280;36301;48.310;12.786;2023-12-07T00:39:43;96421.31;;;2.92;100.00
50384;BME280;36301;48.310;12.786;2023-12-07T00:42:09;96411.34;;;2.94;100.00
50384;BME280;36301;48.310;12.786;2023-12-07T00:44:40;96423.63;;;2.85;100.00
50384;BME280;36301;48.310;12.786;2023-12-07T00:47:07;96422.19;;;2.70;100.00
50384;BME280;36301;48.310;12.786;2023-12-07T00:49:33;96417.91;;;2.74;100.00
50384;BME280;36301;48.310;12.786;2023-12-07T00:52:03;96422.09;;;2.84;100.00
50384;BME280;36301;48.310;12.786;2023-12-07T00:54:30;96425.16;;;2.86;100.00
50384;BME280;36301;48.310;12.786;2023-12-07T00:56:56;96430.41;;;2.95;100.00
50384;BME280;36301;48.310;12.786;2023-12-07T00:59:24;96428.09;;;2.93;100.00
50384;BME280;36301;48.310;12.786;2023-12-07T01:01:51;96431.47;;;2.85;100.00
50384;BME280;36301;48.310;12.786;2023-12-07T01:04:17;96423.91;;;2.75;100.00
50384;BME280;36301;48.310;12.786;2023-12-07T01:06:44;96432.34;;;2.72;100.00
50384;BME280;36301;48.310;12.786;2023-12-07T01:09:11;96431.75;;;2.83;100.00
50384;BME280;36301;48.310;12.786;2023-12-07T01:11:39;96430.84;;;2.79;100.00
50384;BME280;36301;48.310;12.786;2023-12-07T01:14:08;96435.25;;;2.70;100.00
50384;BME280;36301;48.310;12.786;2023-12-07T01:16:35;96433.88;;;2.64;100.00
50384;BME280;36301;48.310;12.786;2023-12-07T01:19:02;96433.78;;;2.47;100.00
50384;BME280;36301;48.310;12.786;2023-12-07T01:21:28;96441.97;;;2.54;100.00
50384;BME280;36301;48.310;12.786;2023-12-07T01:23:56;96448.88;;;2.50;100.00
50384;BME280;36301;48.310;12.786;2023-12-07T01:26:38;96446.88;;;2.55;100.00
50384;BME280;36301;48.310;12.786;2023-12-07T01:29:05;96438.81;;;2.34;100.00
50384;BME280;36301;48.310;12.786;2023-12-07T01:31:31;96447.41;;;2.35;100.00
50384;BME280;36301;48.310;12.786;2023-12-07T01:33:58;96447.72;;;2.33;100.00
50384;BME280;36301;48.310;12.786;2023-12-07T01:36:24;96451.22;;;2.60;100.00
50384;BME280;36301;48.310;12.786;2023-12-07T01:38:51;96444.75;;;2.26;100.00
50384;BME280;36301;48.310;12.786;2023-12-07T01:41:18;96449.06;;;2.31;100.00
50384;BME280;36301;48.310;12.786;2023-12-07T01:43:45;96448.50;;;2.34;100.00
50384;BME280;36301;48.310;12.786;2023-12-07T01:46:13;96451.81;;;2.26;100.00
50384;BME280;36301;48.310;12.786;2023-12-07T01:48:40;96450.63;;;2.32;100.00
50384;BME280;36301;48.310;12.786;2023-12-07T01:51:08;96459.72;;;2.43;100.00
50384;BME280;36301;48.310;12.786;2023-12-07T01:53:35;96459.91;;;2.16;100.00
50384;BME280;36301;48.310;12.786;2023-12-07T01:56:02;96459.44;;;2.14;100.00
50384;BME280;36301;48.310;12.786;2023-12-07T01:58:29;96461.81;;;2.01;100.00
50384;BME280;36301;48.310;12.786;2023-12-07T02:00:55;96458.91;;;2.03;100.00
50384;BME280;36301;48.310;12.786;2023-12-07T02:03:23;96466.19;;;1.92;100.00
50384;BME280;36301;48.310;12.786;2023-12-07T02:05:51;96471.16;;;1.94;100.00
50384;BME280;36301;48.310;12.786;2023-12-07T02:08:17;96471.25;;;1.89;100.00
50384;BME280;36301;48.310;12.786;2023-12-07T02:10:44;96471.59;;;1.96;100.00
50384;BME280;36301;48.310;12.786;2023-12-07T02:13:11;96474.63;;;1.89;100.00
50384;BME280;36301;48.310;12.786;2023-12-07T02:15:38;96465.97;;;1.80;100.00
50384;BME280;36301;48.310;12.786;2023-12-07T02:18:14;96469.38;;;2.03;100.00
50384;BME280;36301;48.310;12.786;2023-12-07T02:21:26;96470.41;;;2.02;100.00
50384;BME280;36301;48.310;12.786;2023-12-07T02:23:32;96473.81;;;1.80;100.00
50384;BME280;36301;48.310;12.786;2023-12-07T02:26:18;96476.75;;;1.87;100.00
50384;BME280;36301;48.310;12.786;2023-12-07T02:28:46;96479.94;;;1.98;100.00
50384;BME280;36301;48.310;12.786;2023-12-07T02:31:12;96475.72;;;1.88;100.00
50384;BME280;36301;48.310;12.786;2023-12-07T02:33:39;96478.25;;;2.02;100.00
50384;BME280;36301;48.310;12.786;2023-12-07T02:36:06;96480.47;;;2.08;100.00
50384;BME280;36301;48.310;12.786;2023-12-07T02:38:34;96482.94;;;2.14;100.00
50384;BME280;36301;48.310;12.786;2023-12-07T02:41:01;96481.94;;;2.01;100.00
50384;BME280;36301;48.310;12.786;2023-12-07T02:43:29;96482.06;;;1.96;100.00
50384;BME280;36301;48.310;12.786;2023-12-07T02:45:56;96477.75;;;2.22;100.00
50384;BME280;36301;48.310;12.786;2023-12-07T02:48:23;96478.06;;;2.21;100.00
50384;BME280;36301;48.310;12.786;2023-12-07T02:50:50;96481.44;;;2.21;100.00
50384;BME280;36301;48.310;12.786;2023-12-07T02:53:17;96476.22;;;2.44;100.00
50384;BME280;36301;48.310;12.786;2023-12-07T02:55:44;96487.81;;;2.29;100.00
50384;BME280;36301;48.310;12.786;2023-12-07T02:58:11;96496.31;;;2.43;100.00
50384;BME280;36301;48.310;12.786;2023-12-07T03:00:37;96482.81;;;2.19;100.00
50384;BME280;36301;48.310;12.786;2023-12-07T03:03:04;96485.59;;;2.22;100.00
50384;BME280;36301;48.310;12.786;2023-12-07T03:05:30;96486.97;;;2.20;100.00
50384;BME280;36301;48.310;12.786;2023-12-07T03:07:57;96493.69;;;2.34;100.00
50384;BME280;36301;48.310;12.786;2023-12-07T03:10:24;96498.00;;;2.39;100.00
50384;BME280;36301;48.310;12.786;2023-12-07T03:12:50;96504.50;;;2.19;100.00
50384;BME280;36301;48.310;12.786;2023-12-07T03:15:17;96500.97;;;2.01;100.00
50384;BME280;36301;48.310;12.786;2023-12-07T03:17:43;96503.31;;;2.03;100.00
50384;BME280;36301;48.310;12.786;2023-12-07T03:20:10;96514.81;;;2.24;100.00
50384;BME280;36301;48.310;12.786;2023-12-07T03:22:37;96521.28;;;2.27;100.00
50384;BME280;36301;48.310;12.786;2023-12-07T03:25:04;96516.06;;;2.27;100.00
50384;BME280;36301;48.310;12.786;2023-12-07T03:27:30;96520.56;;;2.35;100.00
50384;BME280;36301;48.310;12.786;2023-12-07T03:29:57;96523.31;;;2.30;100.00
50384;BME280;36301;48.310;12.786;2023-12-07T03:32:24;96527.44;;;2.31;100.00
50384;BME280;36301;48.310;12.786;2023-12-07T03:34:51;96528.34;;;2.26;100.00
50384;BME280;36301;48.310;12.786;2023-12-07T03:37:17;96535.53;;;2.21;100.00
50384;BME280;36301;48.310;12.786;2023-12-07T03:39:44;96539.28;;;2.28;100.00
50384;BME280;36301;48.310;12.786;2023-12-07T03:42:10;96539.28;;;2.28;100.00
50384;BME280;36301;48.310;12.786;2023-12-07T03:44:57;96538.75;;;2.40;100.00
50384;BME280;36301;48.310;12.786;2023-12-07T03:47:23;96535.63;;;2.38;100.00
50384;BME280;36301;48.310;12.786;2023-12-07T03:49:50;96541.47;;;2.35;100.00
50384;BME280;36301;48.310;12.786;2023-12-07T03:52:16;96544.03;;;2.26;100.00
50384;BME280;36301;48.310;12.786;2023-12-07T03:54:43;96544.91;;;2.22;100.00
50384;BME280;36301;48.310;12.786;2023-12-07T03:57:10;96547.91;;;2.29;100.00
50384;BME280;36301;48.310;12.786;2023-12-07T03:59:36;96551.16;;;2.34;100.00
50384;BME280;36301;48.310;12.786;2023-12-07T04:02:03;96549.44;;;2.30;100.00
50384;BME280;36301;48.310;12.786;2023-12-07T04:04:30;96532.09;;;2.34;100.00
50384;BME280;36301;48.310;12.786;2023-12-07T04:06:57;96553.75;;;2.57;100.00
50384;BME280;36301;48.310;12.786;2023-12-07T04:09:24;96557.03;;;2.40;100.00
50384;BME280;36301;48.310;12.786;2023-12-07T04:11:50;96556.78;;;2.50;100.00
50384;BME280;36301;48.310;12.786;2023-12-07T04:14:17;96563.09;;;2.49;100.00
50384;BME280;36301;48.310;12.786;2023-12-07T04:16:43;96560.72;;;2.39;100.00
50384;BME280;36301;48.310;12.786;2023-12-07T04:19:10;96564.09;;;2.40;100.00
50384;BME280;36301;48.310;12.786;2023-12-07T04:21:36;96566.75;;;2.26;100.00
50384;BME280;36301;48.310;12.786;2023-12-07T04:24:04;96563.81;;;2.19;100.00
50384;BME280;36301;48.310;12.786;2023-12-07T04:26:30;96563.50;;;2.20;100.00
50384;BME280;36301;48.310;12.786;2023-12-07T04:28:57;96572.41;;;2.19;100.00
50384;BME280;36301;48.310;12.786;2023-12-07T04:31:23;96565.22;;;2.25;100.00
50384;BME280;36301;48.310;12.786;2023-12-07T04:33:50;96569.84;;;2.28;100.00
50384;BME280;36301;48.310;12.786;2023-12-07T04:36:16;96573.09;;;2.11;100.00
50384;BME280;36301;48.310;12.786;2023-12-07T04:38:43;96578.34;;;1.97;100.00
50384;BME280;36301;48.310;12.786;2023-12-07T04:41:10;96583.00;;;2.00;100.00
50384;BME280;36301;48.310;12.786;2023-12-07T04:43:36;96567.81;;;2.02;100.00
50384;BME280;36301;48.310;12.786;2023-12-07T04:46:03;96590.06;;;2.00;100.00
50384;BME280;36301;48.310;12.786;2023-12-07T04:48:30;96581.53;;;2.08;100.00
50384;BME280;36301;48.310;12.786;2023-12-07T04:50:57;96584.19;;;1.94;100.00
50384;BME280;36301;48.310;12.786;2023-12-07T04:53:23;96580.63;;;1.90;100.00
50384;BME280;36301;48.310;12.786;2023-12-07T04:55:50;96591.91;;;1.99;100.00
50384;BME280;36301;48.310;12.786;2023-12-07T04:58:17;96591.19;;;2.07;100.00
50384;BME280;36301;48.310;12.786;2023-12-07T05:00:44;96595.47;;;2.03;100.00
50384;BME280;36301;48.310;12.786;2023-12-07T05:03:10;96595.91;;;2.19;100.00
50384;BME280;36301;48.310;12.786;2023-12-07T05:05:37;96592.66;;;2.36;100.00
50384;BME280;36301;48.310;12.786;2023-12-07T05:08:04;96602.91;;;2.32;100.00
50384;BME280;36301;48.310;12.786;2023-12-07T05:10:30;96601.38;;;1.95;100.00
50384;BME280;36301;48.310;12.786;2023-12-07T05:12:57;96590.19;;;1.95;100.00
50384;BME280;36301;48.310;12.786;2023-12-07T05:15:24;96603.03;;;1.91;100.00
50384;BME280;36301;48.310;12.786;2023-12-07T05:17:51;96600.84;;;1.85;100.00
50384;BME280;36301;48.310;12.786;2023-12-07T05:20:17;96604.91;;;1.77;100.00
50384;BME280;36301;48.310;12.786;2023-12-07T05:22:48;96594.44;;;1.77;100.00
50384;BME280;36301;48.310;12.786;2023-12-07T05:25:15;96602.59;;;1.75;100.00
50384;BME280;36301;48.310;12.786;2023-12-07T05:27:42;96608.13;;;1.60;100.00
50384;BME280;36301;48.310;12.786;2023-12-07T05:30:09;96602.22;;;1.68;100.00
50384;BME280;36301;48.310;12.786;2023-12-07T05:32:36;96607.44;;;1.68;100.00
50384;BME280;36301;48.310;12.786;2023-12-07T05:35:02;96604.31;;;1.80;100.00
50384;BME280;36301;48.310;12.786;2023-12-07T05:37:29;96596.59;;;1.75;100.00
50384;BME280;36301;48.310;12.786;2023-12-07T05:39:56;96606.78;;;1.63;100.00
50384;BME280;36301;48.310;12.786;2023-12-07T05:42:23;96605.50;;;1.60;100.00
50384;BME280;36301;48.310;12.786;2023-12-07T05:44:50;96609.28;;;1.40;100.00
50384;BME280;36301;48.310;12.786;2023-12-07T05:47:17;96609.09;;;1.50;100.00
50384;BME280;36301;48.310;12.786;2023-12-07T05:49:43;96606.38;;;1.55;100.00
50384;BME280;36301;48.310;12.786;2023-12-07T05:52:10;96614.69;;;1.30;100.00
50384;BME280;36301;48.310;12.786;2023-12-07T05:54:38;96586.56;;;0.99;100.00
50384;BME280;36301;48.310;12.786;2023-12-07T05:57:08;96610.34;;;1.25;100.00
50384;BME280;36301;48.310;12.786;2023-12-07T05:59:38;96615.00;;;1.42;100.00
50384;BME280;36301;48.310;12.786;2023-12-07T06:02:05;96613.25;;;1.38;100.00
50384;BME280;36301;48.310;12.786;2023-12-07T06:04:33;96616.03;;;1.55;100.00
50384;BME280;36301;48.310;12.786;2023-12-07T06:06:59;96626.25;;;0.64;100.00
50384;BME280;36301;48.310;12.786;2023-12-07T06:09:26;96620.06;;;0.60;100.00
50384;BME280;36301;48.310;12.786;2023-12-07T06:11:52;96621.72;;;0.69;100.00
50384;BME280;36301;48.310;12.786;2023-12-07T06:14:19;96622.41;;;0.75;100.00
50384;BME280;36301;48.310;12.786;2023-12-07T06:16:46;96615.44;;;0.70;100.00
50384;BME280;36301;48.310;12.786;2023-12-07T06:19:12;96626.88;;;0.56;100.00
50384;BME280;36301;48.310;12.786;2023-12-07T06:21:39;96597.06;;;0.48;100.00
50384;BME280;36301;48.310;12.786;2023-12-07T06:24:05;96632.75;;;0.47;100.00
50384;BME280;36301;48.310;12.786;2023-12-07T06:26:33;96626.34;;;0.40;100.00
50384;BME280;36301;48.310;12.786;2023-12-07T06:29:00;96633.13;;;0.22;100.00
50384;BME280;36301;48.310;12.786;2023-12-07T06:31:26;96636.13;;;0.29;100.00
50384;BME280;36301;48.310;12.786;2023-12-07T06:33:53;96636.13;;;0.29;100.00
50384;BME280;36301;48.310;12.786;2023-12-07T06:36:23;96640.66;;;0.42;100.00
50384;BME280;36301;48.310;12.786;2023-12-07T06:38:50;96632.47;;;0.30;100.00
50384;BME280;36301;48.310;12.786;2023-12-07T06:41:16;96635.59;;;0.32;100.00
50384;BME280;36301;48.310;12.786;2023-12-07T06:43:43;96633.97;;;0.17;100.00
50384;BME280;36301;48.310;12.786;2023-12-07T06:46:13;96630.22;;;0.23;100.00
50384;BME280;36301;48.310;12.786;2023-12-07T06:48:41;96634.03;;;0.31;100.00
50384;BME280;36301;48.310;12.786;2023-12-07T06:51:07;96630.72;;;0.44;100.00
50384;BME280;36301;48.310;12.786;2023-12-07T06:53:34;96631.41;;;0.50;100.00
50384;BME280;36301;48.310;12.786;2023-12-07T06:56:00;96633.75;;;0.51;100.00
50384;BME280;36301;48.310;12.786;2023-12-07T06:58:27;96632.69;;;0.52;100.00
50384;BME280;36301;48.310;12.786;2023-12-07T07:00:54;96635.00;;;0.54;100.00
50384;BME280;36301;48.310;12.786;2023-12-07T07:03:20;96629.34;;;0.66;100.00
50384;BME280;36301;48.310;12.786;2023-12-07T07:05:47;96625.47;;;0.31;100.00
50384;BME280;36301;48.310;12.786;2023-12-07T07:08:13;96622.72;;;0.22;100.00
50384;BME280;36301;48.310;12.786;2023-12-07T07:10:40;96632.28;;;0.27;100.00
50384;BME280;36301;48.310;12.786;2023-12-07T07:13:06;96627.56;;;0.10;100.00
50384;BME280;36301;48.310;12.786;2023-12-07T07:15:33;96637.81;;;0.20;100.00
50384;BME280;36301;48.310;12.786;2023-12-07T07:18:00;96631.59;;;0.21;100.00
50384;BME280;36301;48.310;12.786;2023-12-07T07:20:27;96635.28;;;0.34;100.00
50384;BME280;36301;48.310;12.786;2023-12-07T07:22:54;96627.25;;;0.30;100.00
50384;BME280;36301;48.310;12.786;2023-12-07T07:25:20;96634.59;;;0.47;100.00
50384;BME280;36301;48.310;12.786;2023-12-07T07:27:47;96640.91;;;0.60;100.00
50384;BME280;36301;48.310;12.786;2023-12-07T07:30:13;96635.22;;;0.58;100.00
50384;BME280;36301;48.310;12.786;2023-12-07T07:32:40;96625.91;;;0.84;100.00
50384;BME280;36301;48.310;12.786;2023-12-07T07:35:07;96628.22;;;1.46;100.00
50384;BME280;36301;48.310;12.786;2023-12-07T07:37:34;96635.53;;;1.99;100.00
50384;BME280;36301;48.310;12.786;2023-12-07T07:40:01;96634.94;;;3.14;100.00
50384;BME280;36301;48.310;12.786;2023-12-07T07:42:33;96637.22;;;3.95;95.09
50384;BME280;36301;48.310;12.786;2023-12-07T07:45:00;96635.44;;;4.39;91.45
50384;BME280;36301;48.310;12.786;2023-12-07T07:47:26;96641.44;;;4.22;88.65
50384;BME280;36301;48.310;12.786;2023-12-07T07:49:53;96640.91;;;3.77;89.25
50384;BME280;36301;48.310;12.786;2023-12-07T07:52:19;96643.13;;;3.52;89.25
50384;BME280;36301;48.310;12.786;2023-12-07T07:54:46;96645.97;;;3.02;88.33
50384;BME280;36301;48.310;12.786;2023-12-07T07:57:13;96642.63;;;3.42;89.46
50384;BME280;36301;48.310;12.786;2023-12-07T07:59:39;96643.72;;;3.98;86.53
50384;BME280;36301;48.310;12.786;2023-12-07T08:02:06;96649.75;;;4.07;82.92
50384;BME280;36301;48.310;12.786;2023-12-07T08:04:32;96651.69;;;3.84;83.06
50384;BME280;36301;48.310;12.786;2023-12-07T08:06:59;96644.31;;;3.06;87.97
50384;BME280;36301;48.310;12.786;2023-12-07T08:09:25;96648.72;;;2.97;89.90
50384;BME280;36301;48.310;12.786;2023-12-07T08:11:52;96650.38;;;3.16;91.66
50384;BME280;36301;48.310;12.786;2023-12-07T08:14:19;96648.91;;;3.32;89.16
50384;BME280;36301;48.310;12.786;2023-12-07T08:16:45;96649.03;;;3.67;89.77
50384;BME280;36301;48.310;12.786;2023-12-07T08:19:13;96655.69;;;3.90;87.51
50384;BME280;36301;48.310;12.786;2023-12-07T08:21:40;96650.66;;;4.20;85.92
50384;BME280;36301;48.310;12.786;2023-12-07T08:24:06;96643.31;;;3.56;86.85
50384;BME280;36301;48.310;12.786;2023-12-07T08:26:33;96653.00;;;4.38;83.59
50384;BME280;36301;48.310;12.786;2023-12-07T08:28:59;96660.09;;;5.45;78.59
50384;BME280;36301;48.310;12.786;2023-12-07T08:31:26;96647.59;;;6.10;72.79
50384;BME280;36301;48.310;12.786;2023-12-07T08:33:53;96653.19;;;6.30;70.95
50384;BME280;36301;48.310;12.786;2023-12-07T08:36:20;96650.94;;;6.19;70.65
50384;BME280;36301;48.310;12.786;2023-12-07T08:38:47;96650.19;;;6.40;69.75
50384;BME280;36301;48.310;12.786;2023-12-07T08:41:13;96649.19;;;6.98;67.45
50384;BME280;36301;48.310;12.786;2023-12-07T08:43:40;96647.16;;;6.50;67.89
50384;BME280;36301;48.310;12.786;2023-12-07T08:46:07;96646.16;;;6.75;69.34
50384;BME280;36301;48.310;12.786;2023-12-07T08:48:36;96654.84;;;7.21;67.29
50384;BME280;36301;48.310;12.786;2023-12-07T08:51:06;96659.56;;;7.16;65.62
50384;BME280;36301;48.310;12.786;2023-12-07T08:53:35;96655.41;;;7.27;67.29
50384;BME280;36301;48.310;12.786;2023-12-07T08:56:04;96661.72;;;7.59;65.23
50384;BME280;36301;48.310;12.786;2023-12-07T08:58:31;96659.53;;;7.61;64.30
50384;BME280;36301;48.310;12.786;2023-12-07T09:00:58;96656.34;;;7.56;62.58
50384;BME280;36301;48.310;12.786;2023-12-07T09:03:24;96664.38;;;7.71;65.38
50384;BME280;36301;48.310;12.786;2023-12-07T09:05:54;96660.28;;;7.74;64.04
50384;BME280;36301;48.310;12.786;2023-12-07T09:08:21;96660.84;;;7.79;62.63
50384;BME280;36301;48.310;12.786;2023-12-07T09:10:48;96664.22;;;7.31;63.35
50384;BME280;36301;48.310;12.786;2023-12-07T09:13:18;96666.22;;;7.01;67.24
50384;BME280;36301;48.310;12.786;2023-12-07T09:15:44;96662.78;;;7.34;68.64
50384;BME280;36301;48.310;12.786;2023-12-07T09:18:11;96665.97;;;7.39;66.87
50384;BME280;36301;48.310;12.786;2023-12-07T09:20:39;96665.06;;;7.23;65.49
50384;BME280;36301;48.310;12.786;2023-12-07T09:23:12;96661.16;;;7.41;63.79
50384;BME280;36301;48.310;12.786;2023-12-07T09:25:39;96665.75;;;7.32;65.55
50384;BME280;36301;48.310;12.786;2023-12-07T09:28:07;96665.34;;;7.67;64.36
50384;BME280;36301;48.310;12.786;2023-12-07T09:30:34;96656.56;;;7.87;62.69
50384;BME280;36301;48.310;12.786;2023-12-07T09:33:01;96661.81;;;7.63;62.34
50384;BME280;36301;48.310;12.786;2023-12-07T09:35:31;96661.78;;;6.93;63.59
50384;BME280;36301;48.310;12.786;2023-12-07T09:38:00;96662.13;;;6.91;64.44
50384;BME280;36301;48.310;12.786;2023-12-07T09:40:27;96660.13;;;6.88;66.26
50384;BME280;36301;48.310;12.786;2023-12-07T09:42:55;96660.81;;;6.64;63.72
50384;BME280;36301;48.310;12.786;2023-12-07T09:45:22;96654.59;;;7.14;63.80
50384;BME280;36301;48.310;12.786;2023-12-07T09:47:52;96654.16;;;7.12;63.45
50384;BME280;36301;48.310;12.786;2023-12-07T09:50:21;96646.75;;;7.26;66.49
50384;BME280;36301;48.310;12.786;2023-12-07T09:52:53;96650.59;;;7.29;62.64
50384;BME280;36301;48.310;12.786;2023-12-07T09:55:33;96643.78;;;6.83;64.53
50384;BME280;36301;48.310;12.786;2023-12-07T09:58:03;96638.50;;;7.16;63.14
50384;BME280;36301;48.310;12.786;2023-12-07T10:00:30;96631.31;;;6.92;63.39
50384;BME280;36301;48.310;12.786;2023-12-07T10:02:57;96639.75;;;6.97;62.91
50384;BME280;36301;48.310;12.786;2023-12-07T10:05:24;96638.84;;;6.81;64.84
50384;BME280;36301;48.310;12.786;2023-12-07T10:07:51;96644.84;;;6.69;62.99
50384;BME280;36301;48.310;12.786;2023-12-07T10:10:18;96638.22;;;6.42;66.75
50384;BME280;36301;48.310;12.786;2023-12-07T10:12:46;96642.28;;;6.61;67.61
50384;BME280;36301;48.310;12.786;2023-12-07T10:15:15;96636.78;;;6.03;66.22
50384;BME280;36301;48.310;12.786;2023-12-07T10:20:16;96641.72;;;5.75;70.12
50384;BME280;36301;48.310;12.786;2023-12-07T10:22:44;96629.72;;;5.65;69.96
50384;BME280;36301;48.310;12.786;2023-12-07T10:25:11;96624.16;;;5.67;67.59
50384;BME280;36301;48.310;12.786;2023-12-07T10:27:41;96631.53;;;5.35;70.45
50384;BME280;36301;48.310;12.786;2023-12-07T10:30:09;96633.00;;;5.07;72.00
50384;BME280;36301;48.310;12.786;2023-12-07T10:32:40;96626.88;;;4.94;74.13
50384;BME280;36301;48.310;12.786;2023-12-07T10:35:07;96629.25;;;4.69;77.81
50384;BME280;36301;48.310;12.786;2023-12-07T10:37:34;96622.47;;;4.68;77.48
50384;BME280;36301;48.310;12.786;2023-12-07T10:40:02;96621.31;;;5.04;76.46
50384;BME280;36301;48.310;12.786;2023-12-07T10:42:32;96627.16;;;5.10;75.88
50384;BME280;36301;48.310;12.786;2023-12-07T10:45:03;96624.16;;;4.82;75.22
50384;BME280;36301;48.310;12.786;2023-12-07T10:47:33;96625.13;;;5.15;74.42
50384;BME280;36301;48.310;12.786;2023-12-07T10:50:03;96621.34;;;4.87;73.92
50384;BME280;36301;48.310;12.786;2023-12-07T10:52:31;96613.00;;;4.85;74.52
50384;BME280;36301;48.310;12.786;2023-12-07T10:55:06;96610.88;;;4.69;77.24
50384;BME280;36301;48.310;12.786;2023-12-07T10:57:34;96609.50;;;4.63;76.84
50384;BME280;36301;48.310;12.786;2023-12-07T11:00:02;96617.38;;;4.72;78.17
50384;BME280;36301;48.310;12.786;2023-12-07T11:02:29;96609.09;;;5.08;75.01
50384;BME280;36301;48.310;12.786;2023-12-07T11:04:59;96606.25;;;4.75;76.95
50384;BME280;36301;48.310;12.786;2023-12-07T11:07:34;96608.75;;;4.63;78.68
50384;BME280;36301;48.310;12.786;2023-12-07T11:10:15;96595.91;;;4.79;78.03
50384;BME280;36301;48.310;12.786;2023-12-07T11:12:51;96594.63;;;5.02;76.49
50384;BME280;36301;48.310;12.786;2023-12-07T11:15:19;96599.88;;;5.02;75.29
50384;BME280;36301;48.310;12.786;2023-12-07T11:17:50;96589.97;;;5.08;73.66
50384;BME280;36301;48.310;12.786;2023-12-07T11:20:19;96580.44;;;4.86;73.92
50384;BME280;36301;48.310;12.786;2023-12-07T11:22:47;96586.34;;;4.83;74.94
50384;BME280;36301;48.310;12.786;2023-12-07T11:25:15;96591.84;;;4.90;74.11
50384;BME280;36301;48.310;12.786;2023-12-07T11:27:44;96587.81;;;5.01;74.31
50384;BME280;36301;48.310;12.786;2023-12-07T11:30:14;96582.19;;;4.64;75.28
50384;BME280;36301;48.310;12.786;2023-12-07T11:32:41;96584.66;;;4.69;76.42
50384;BME280;36301;48.310;12.786;2023-12-07T11:35:12;96584.91;;;4.85;75.08
50384;BME280;36301;48.310;12.786;2023-12-07T11:38:07;96566.72;;;4.80;76.60
50384;BME280;36301;48.310;12.786;2023-12-07T11:40:36;96572.13;;;4.92;75.46
50384;BME280;36301;48.310;12.786;2023-12-07T11:43:03;96573.16;;;4.91;74.90
50384;BME280;36301;48.310;12.786;2023-12-07T11:45:41;96570.84;;;4.99;75.51
50384;BME280;36301;48.310;12.786;2023-12-07T11:48:10;96577.19;;;4.98;76.02
50384;BME280;36301;48.310;12.786;2023-12-07T11:51:00;96565.88;;;5.06;75.06
50384;BME280;36301;48.310;12.786;2023-12-07T11:53:31;96574.13;;;4.87;76.01
50384;BME280;36301;48.310;12.786;2023-12-07T11:55:59;96577.38;;;4.84;75.69
50384;BME280;36301;48.310;12.786;2023-12-07T11:58:28;96578.75;;;4.81;77.07
50384;BME280;36301;48.310;12.786;2023-12-07T12:00:55;96570.34;;;5.05;75.93
50384;BME280;36301;48.310;12.786;2023-12-07T12:03:24;96566.59;;;5.24;75.11
50384;BME280;36301;48.310;12.786;2023-12-07T12:05:50;96571.53;;;5.55;72.93
50384;BME280;36301;48.310;12.786;2023-12-07T12:08:18;96563.94;;;5.83;70.41
50384;BME280;36301;48.310;12.786;2023-12-07T12:10:46;96559.72;;;5.69;70.89
50384;BME280;36301;48.310;12.786;2023-12-07T12:13:13;96562.53;;;5.64;71.19
50384;BME280;36301;48.310;12.786;2023-12-07T12:15:39;96549.91;;;5.58;72.35
50384;BME280;36301;48.310;12.786;2023-12-07T12:18:07;96553.16;;;5.55;72.20
50384;BME280;36301;48.310;12.786;2023-12-07T12:20:35;96553.41;;;5.62;73.28
50384;BME280;36301;48.310;12.786;2023-12-07T12:23:01;96548.44;;;5.69;73.41
50384;BME280;36301;48.310;12.786;2023-12-07T12:25:30;96549.13;;;5.28;74.72
50384;BME280;36301;48.310;12.786;2023-12-07T12:27:59;96552.34;;;5.84;74.47
50384;BME280;36301;48.310;12.786;2023-12-07T12:30:30;96559.28;;;5.88;73.27
50384;BME280;36301;48.310;12.786;2023-12-07T12:32:57;96558.19;;;5.89;71.83
50384;BME280;36301;48.310;12.786;2023-12-07T12:35:24;96548.53;;;6.02;71.48
50384;BME280;36301;48.310;12.786;2023-12-07T12:37:51;96557.06;;;6.20;71.30
50384;BME280;36301;48.310;12.786;2023-12-07T12:40:20;96545.13;;;6.02;72.34
50384;BME280;36301;48.310;12.786;2023-12-07T12:42:49;96543.63;;;5.71;73.91
50384;BME280;36301;48.310;12.786;2023-12-07T12:45:19;96535.75;;;5.71;74.60
50384;BME280;36301;48.310;12.786;2023-12-07T12:47:47;96547.13;;;5.54;75.35
50384;BME280;36301;48.310;12.786;2023-12-07T12:50:37;96542.84;;;5.11;77.93
50384;BME280;36301;48.310;12.786;2023-12-07T12:53:08;96543.38;;;4.96;79.97
50384;BME280;36301;48.310;12.786;2023-12-07T12:55:37;96545.44;;;4.82;80.71
50384;BME280;36301;48.310;12.786;2023-12-07T12:58:06;96540.88;;;4.61;81.81
50384;BME280;36301;48.310;12.786;2023-12-07T13:00:37;96539.19;;;4.57;83.04